createdAt,value
2023-02-08T00:01:50.819Z,21.63
2023-02-08T00:04:22.094Z,25.87
2023-02-08T00:06:53.361Z,26.97
2023-02-08T00:09:24.756Z,27.90
2023-02-08T00:11:56.202Z,27.00
2023-02-08T00:14:27.479Z,25.90
2023-02-08T00:16:58.802Z,29.77
2023-02-08T00:19:30.192Z,26.20
2023-02-08T00:22:01.471Z,23.10
2023-02-08T00:24:33.194Z,24.10
2023-02-08T00:27:04.603Z,24.67
2023-02-08T00:29:35.932Z,25.07
2023-02-08T00:32:07.222Z,24.97
2023-02-08T00:34:38.859Z,20.07
2023-02-08T00:37:10.895Z,27.53
2023-02-08T00:39:42.250Z,25.37
2023-02-08T00:42:13.506Z,24.43
2023-02-08T00:44:45.284Z,23.27
2023-02-08T00:47:16.649Z,25.10
2023-02-08T00:49:47.948Z,22.27
2023-02-08T00:52:19.530Z,25.03
2023-02-08T00:54:50.810Z,21.67
2023-02-08T00:57:22.082Z,20.77
2023-02-08T00:59:53.489Z,24.90
2023-02-08T01:02:25.142Z,28.57
2023-02-08T01:04:56.423Z,25.23
2023-02-08T01:07:27.755Z,22.57
2023-02-08T01:10:00.551Z,26.57
2023-02-08T01:12:32.032Z,26.10
2023-02-08T01:15:03.853Z,23.77
2023-02-08T01:17:35.245Z,23.37
2023-02-08T01:20:06.979Z,21.57
2023-02-08T01:22:38.239Z,23.10
2023-02-08T01:25:09.491Z,35.27
2023-02-08T01:27:40.778Z,24.87
2023-02-08T01:30:12.845Z,25.13
2023-02-08T01:32:44.188Z,24.60
2023-02-08T01:35:15.558Z,25.53
2023-02-08T01:37:46.818Z,24.53
2023-02-08T01:40:18.155Z,22.23
2023-02-08T01:42:49.442Z,22.17
2023-02-08T01:45:27.895Z,25.17
2023-02-08T01:48:06.304Z,23.93
2023-02-08T01:51:02.722Z,25.07
2023-02-08T01:53:35.358Z,23.77
2023-02-08T01:56:18.430Z,21.17
2023-02-08T01:58:53.866Z,18.23
2023-02-08T02:01:27.220Z,23.25
2023-02-08T02:04:04.224Z,25.77
2023-02-08T02:06:40.876Z,17.43
2023-02-08T02:09:19.941Z,18.40
2023-02-08T02:11:53.313Z,22.03
2023-02-08T02:14:25.553Z,23.13
2023-02-08T02:16:59.730Z,19.20
2023-02-08T02:19:31.065Z,20.07
2023-02-08T02:22:48.556Z,17.27
2023-02-08T02:25:32.157Z,21.05
2023-02-08T02:28:38.613Z,24.00
2023-02-08T02:31:47.211Z,15.50
2023-02-08T02:34:37.102Z,23.13
2023-02-08T02:37:28.198Z,22.80
2023-02-08T02:40:25.721Z,18.20
2023-02-08T02:43:33.020Z,19.67
2023-02-08T02:46:38.774Z,19.38
2023-02-08T02:49:36.062Z,19.10
2023-02-08T02:52:21.120Z,22.92
2023-02-08T02:54:55.554Z,21.07
2023-02-08T02:57:32.347Z,22.67
2023-02-08T03:00:10.436Z,23.40
2023-02-08T03:02:42.091Z,24.90
2023-02-08T03:05:13.626Z,27.00
2023-02-08T03:07:53.695Z,24.13
2023-02-08T03:10:49.372Z,22.70
2023-02-08T03:13:35.354Z,20.63
2023-02-08T03:16:19.289Z,24.15
2023-02-08T03:19:04.912Z,23.33
2023-02-08T03:21:55.297Z,24.20
2023-02-08T03:24:36.078Z,23.13
2023-02-08T03:27:22.620Z,26.37
2023-02-08T03:30:13.269Z,22.73
2023-02-08T03:32:51.678Z,22.37
2023-02-08T03:35:29.555Z,23.63
2023-02-08T03:38:29.371Z,22.67
2023-02-08T03:41:04.287Z,23.13
2023-02-08T03:43:40.141Z,26.97
2023-02-08T03:46:15.971Z,25.58
2023-02-08T03:48:54.195Z,22.17
2023-02-08T03:51:28.100Z,22.17
2023-02-08T03:54:03.237Z,25.30
2023-02-08T03:56:41.531Z,30.70
2023-02-08T03:59:20.052Z,30.20
2023-02-08T04:01:58.794Z,33.88
2023-02-08T04:04:35.256Z,26.52
2023-02-08T04:09:38.961Z,22.85
2023-02-08T04:12:10.392Z,22.07
2023-02-08T04:14:41.798Z,32.35
2023-02-08T04:17:13.079Z,28.25
2023-02-08T04:19:44.435Z,26.08
2023-02-08T04:22:15.757Z,27.80
2023-02-08T04:24:47.062Z,24.33
2023-02-08T04:27:18.479Z,29.55
2023-02-08T04:29:49.853Z,27.75
2023-02-08T04:32:21.165Z,32.40
2023-02-08T04:34:52.478Z,23.93
2023-02-08T04:37:23.879Z,25.83
2023-02-08T04:39:55.159Z,28.45
2023-02-08T04:42:26.571Z,29.02
2023-02-08T04:44:57.859Z,32.78
2023-02-08T04:47:29.314Z,26.02
2023-02-08T04:50:00.662Z,29.77
2023-02-08T04:52:32.057Z,37.17
2023-02-08T04:55:03.427Z,38.30
2023-02-08T04:57:34.709Z,31.63
2023-02-08T05:00:06.625Z,29.23
2023-02-08T05:02:37.901Z,30.42
2023-02-08T05:05:09.217Z,33.65
2023-02-08T05:07:43.592Z,33.65
2023-02-08T05:10:15.649Z,27.65
2023-02-08T05:12:47.090Z,29.42
2023-02-08T05:15:18.399Z,27.63
2023-02-08T05:17:49.744Z,33.75
2023-02-08T05:20:21.575Z,28.80
2023-02-08T05:22:52.874Z,27.15
2023-02-08T05:25:24.236Z,30.73
2023-02-08T05:27:55.688Z,22.30
2023-02-08T05:30:27.071Z,30.33
2023-02-08T05:32:58.616Z,26.83
2023-02-08T05:35:30.147Z,33.40
2023-02-08T05:38:01.568Z,33.88
2023-02-08T05:40:33.457Z,30.92
2023-02-08T05:43:04.820Z,31.33
2023-02-08T05:45:36.190Z,30.90
2023-02-08T05:48:07.527Z,37.55
2023-02-08T05:50:39.262Z,37.50
2023-02-08T05:53:10.904Z,39.33
2023-02-08T05:55:46.260Z,36.17
2023-02-08T05:58:17.594Z,32.25
2023-02-08T06:00:49.048Z,35.67
2023-02-08T06:03:20.599Z,31.93
2023-02-08T06:05:52.084Z,42.80
2023-02-08T06:08:23.376Z,42.30
2023-02-08T06:10:54.731Z,33.13
2023-02-08T06:13:26.122Z,40.58
2023-02-08T06:15:57.795Z,34.65
2023-02-08T06:18:29.119Z,33.92
2023-02-08T06:21:00.448Z,37.90
2023-02-08T06:23:31.966Z,43.65
2023-02-08T06:26:03.642Z,38.53
2023-02-08T06:28:35.035Z,31.13
2023-02-08T06:31:06.334Z,29.67
2023-02-08T06:33:37.717Z,32.45
2023-02-08T06:36:09.250Z,36.38
2023-02-08T06:38:40.637Z,37.22
2023-02-08T06:41:11.924Z,31.20
2023-02-08T06:43:43.302Z,34.35
2023-02-08T06:46:14.601Z,39.92
2023-02-08T06:48:46.064Z,33.50
2023-02-08T06:51:17.448Z,39.72
2023-02-08T06:53:48.909Z,41.58
2023-02-08T06:56:20.246Z,32.37
2023-02-08T06:58:51.564Z,36.58
2023-02-08T07:01:22.993Z,34.22
2023-02-08T07:03:54.435Z,37.63
2023-02-08T07:06:25.799Z,33.65
2023-02-08T07:08:57.249Z,42.83
2023-02-08T07:11:28.590Z,31.25
2023-02-08T07:14:00.111Z,38.92
2023-02-08T07:16:31.414Z,40.25
2023-02-08T07:19:02.818Z,44.25
2023-02-08T07:21:34.289Z,34.40
2023-02-08T07:24:05.902Z,36.95
2023-02-08T07:26:37.307Z,35.78
2023-02-08T07:29:08.631Z,42.90
2023-02-08T07:31:40.093Z,40.42
2023-02-08T07:34:11.497Z,43.13
2023-02-08T07:36:42.774Z,39.00
2023-02-08T07:39:14.199Z,37.80
2023-02-08T07:41:45.542Z,37.72
2023-02-08T07:44:17.064Z,37.58
2023-02-08T07:46:48.432Z,46.05
2023-02-08T07:49:19.789Z,37.85
2023-02-08T07:51:51.065Z,38.40
2023-02-08T07:54:22.516Z,40.35
2023-02-08T07:56:53.897Z,36.70
2023-02-08T07:59:25.382Z,40.72
2023-02-08T08:01:56.758Z,43.33
2023-02-08T08:04:28.157Z,37.20
2023-02-08T08:06:59.431Z,35.07
2023-02-08T08:09:30.938Z,43.47
2023-02-08T08:12:02.701Z,36.83
2023-02-08T08:14:34.029Z,40.00
2023-02-08T08:17:05.367Z,44.80
2023-02-08T08:19:36.748Z,42.73
2023-02-08T08:22:08.031Z,41.43
2023-02-08T08:24:39.311Z,40.23
2023-02-08T08:27:10.687Z,44.13
2023-02-08T08:29:42.156Z,41.47
2023-02-08T08:32:13.417Z,41.70
2023-02-08T08:34:44.715Z,40.37
2023-02-08T08:37:15.988Z,34.97
2023-02-08T08:39:47.280Z,42.27
2023-02-08T08:42:18.723Z,40.77
2023-02-08T08:44:50.131Z,36.10
2023-02-08T08:47:21.734Z,31.47
2023-02-08T08:49:53.175Z,32.63
2023-02-08T08:52:24.509Z,40.63
2023-02-08T08:54:55.891Z,29.77
2023-02-08T08:57:27.204Z,35.90
2023-02-08T08:59:58.584Z,30.17
2023-02-08T09:02:29.971Z,29.23
2023-02-08T09:05:02.677Z,26.00
2023-02-08T09:07:34.286Z,26.60
2023-02-08T09:10:06.047Z,33.20
2023-02-08T09:12:37.396Z,28.30
2023-02-08T09:15:08.912Z,26.00
2023-02-08T09:17:40.198Z,23.57
2023-02-08T09:20:12.592Z,17.97
2023-02-08T09:22:43.852Z,25.07
2023-02-08T09:25:15.492Z,20.07
2023-02-08T09:27:46.872Z,20.17
2023-02-08T09:30:18.144Z,24.10
2023-02-08T09:32:49.418Z,22.90
2023-02-08T09:35:20.694Z,20.50
2023-02-08T09:37:55.324Z,21.03
2023-02-08T09:40:42.771Z,20.93
2023-02-08T09:43:57.560Z,17.90
2023-02-08T09:46:32.637Z,18.50
2023-02-08T09:49:08.856Z,20.93
2023-02-08T09:51:53.577Z,18.10
2023-02-08T09:54:39.017Z,19.93
2023-02-08T09:57:16.172Z,17.67
2023-02-08T10:00:00.142Z,15.70
2023-02-08T10:02:34.099Z,15.47
2023-02-08T10:05:20.475Z,15.83
2023-02-08T10:07:51.907Z,13.50
2023-02-08T10:10:59.086Z,14.27
2023-02-08T10:13:45.703Z,16.95
2023-02-08T10:16:41.952Z,19.60
2023-02-08T10:19:46.852Z,18.63
2023-02-08T10:22:48.990Z,17.33
2023-02-08T10:25:27.308Z,15.43
2023-02-08T10:28:23.246Z,17.80
2023-02-08T10:31:10.535Z,15.10
2023-02-08T10:34:00.884Z,18.53
2023-02-08T10:36:39.424Z,21.97
2023-02-08T10:39:23.963Z,19.20
2023-02-08T10:41:55.653Z,16.87
2023-02-08T10:44:55.944Z,15.50
2023-02-08T10:47:42.979Z,17.37
2023-02-08T10:50:35.531Z,16.43
2023-02-08T10:53:15.354Z,14.47
2023-02-08T10:55:48.188Z,13.40
2023-02-08T10:58:22.975Z,16.30
2023-02-08T11:00:55.160Z,14.97
2023-02-08T11:03:29.213Z,13.83
2023-02-08T11:06:00.672Z,15.30
2023-02-08T11:08:32.036Z,14.57
2023-02-08T11:11:10.260Z,13.97
2023-02-08T11:13:44.352Z,14.17
2023-02-08T11:16:26.690Z,15.03
2023-02-08T11:19:07.739Z,12.23
2023-02-08T11:21:41.094Z,7.47
2023-02-08T11:24:17.476Z,11.67
2023-02-08T11:26:50.945Z,12.63
2023-02-08T11:29:25.824Z,10.50
2023-02-08T11:32:01.358Z,12.20
2023-02-08T11:34:39.138Z,8.38
2023-02-08T11:37:17.538Z,9.67
2023-02-08T11:39:54.139Z,9.67
2023-02-08T11:42:40.983Z,11.10
2023-02-08T11:48:04.934Z,9.43
2023-02-08T11:50:39.284Z,6.83
2023-02-08T11:53:27.569Z,12.23
2023-02-08T11:56:06.326Z,8.73
2023-02-08T11:58:37.658Z,8.57
2023-02-08T12:01:21.130Z,7.67
2023-02-08T12:03:52.780Z,10.90
2023-02-08T12:06:33.804Z,10.30
2023-02-08T12:09:30.507Z,8.47
2023-02-08T12:12:26.609Z,10.48
2023-02-08T12:15:16.840Z,8.97
2023-02-08T12:17:48.059Z,9.00
2023-02-08T12:20:42.438Z,10.17
2023-02-08T12:23:49.125Z,10.73
2023-02-08T12:26:45.049Z,10.07
2023-02-08T12:29:47.986Z,9.13
2023-02-08T12:32:51.929Z,7.97
2023-02-08T12:36:02.790Z,8.10
2023-02-08T12:39:19.699Z,7.87
2023-02-08T12:42:19.424Z,9.80
2023-02-08T12:45:09.319Z,9.93
2023-02-08T12:47:58.269Z,6.43
2023-02-08T12:50:52.825Z,7.53
2023-02-08T12:53:43.797Z,7.77
2023-02-08T12:56:26.299Z,7.20
2023-02-08T12:59:11.790Z,8.47
2023-02-08T13:01:48.402Z,14.73
2023-02-08T13:04:29.702Z,7.10
2023-02-08T13:07:09.974Z,8.77
2023-02-08T13:10:02.515Z,6.50
2023-02-08T13:12:42.141Z,7.33
2023-02-08T13:15:30.157Z,8.10
2023-02-08T13:18:29.731Z,8.97
2023-02-08T13:21:11.469Z,9.17
2023-02-08T13:23:52.436Z,10.03
2023-02-08T13:26:28.005Z,9.90
2023-02-08T13:29:02.458Z,11.43
2023-02-08T13:31:40.953Z,6.37
2023-02-08T13:34:21.489Z,8.20
2023-02-08T13:36:57.362Z,7.20
2023-02-08T13:39:36.736Z,9.20
2023-02-08T13:42:33.007Z,8.07
2023-02-08T13:45:07.478Z,8.43
2023-02-08T13:47:49.188Z,7.13
2023-02-08T13:50:48.516Z,7.13
2023-02-08T13:53:38.435Z,6.87
2023-02-08T13:56:12.067Z,7.20
2023-02-08T13:58:49.368Z,7.63
2023-02-08T14:01:22.405Z,13.77
2023-02-08T14:04:09.826Z,6.90
2023-02-08T14:06:43.990Z,7.63
2023-02-08T14:09:15.254Z,5.53
2023-02-08T14:11:54.572Z,8.80
2023-02-08T14:14:36.342Z,4.80
2023-02-08T14:17:22.217Z,9.33
2023-02-08T14:20:03.896Z,6.85
2023-02-08T14:22:51.868Z,5.87
2023-02-08T14:25:45.007Z,8.17
2023-02-08T14:28:30.398Z,8.03
2023-02-08T14:31:07.183Z,6.97
2023-02-08T14:33:42.948Z,6.47
2023-02-08T14:36:35.001Z,6.60
2023-02-08T14:39:26.300Z,6.07
2023-02-08T14:42:05.274Z,5.03
2023-02-08T14:44:39.522Z,4.50
2023-02-08T14:47:36.807Z,7.10
2023-02-08T14:53:13.298Z,5.80
2023-02-08T14:55:52.289Z,4.40
2023-02-08T14:58:37.497Z,5.07
2023-02-08T15:01:44.039Z,7.40
2023-02-08T15:04:18.251Z,5.80
2023-02-08T15:07:04.624Z,5.43
2023-02-08T15:09:38.681Z,5.43
2023-02-08T15:12:24.626Z,5.40
2023-02-08T15:14:59.172Z,4.95
2023-02-08T15:17:38.566Z,4.97
2023-02-08T15:20:22.343Z,5.77
2023-02-08T15:23:02.548Z,5.40
2023-02-08T15:25:36.839Z,3.50
2023-02-08T15:28:20.753Z,4.90
2023-02-08T15:30:59.401Z,4.67
2023-02-08T15:33:31.150Z,10.17
2023-02-08T15:36:06.775Z,5.50
2023-02-08T15:38:38.779Z,4.25
2023-02-08T15:41:14.442Z,6.60
2023-02-08T15:43:45.735Z,9.70
2023-02-08T15:46:26.594Z,8.40
2023-02-08T15:48:59.351Z,3.50
2023-02-08T15:51:30.889Z,5.50
2023-02-08T15:54:02.942Z,7.63
2023-02-08T15:56:40.716Z,3.67
2023-02-08T15:59:25.471Z,5.40
2023-02-08T16:01:58.292Z,5.13
2023-02-08T16:04:29.616Z,4.60
2023-02-08T16:07:01.240Z,6.87
2023-02-08T16:09:32.692Z,6.93
2023-02-08T16:12:04.299Z,8.63
2023-02-08T16:14:52.200Z,4.70
2023-02-08T16:17:44.684Z,5.33
2023-02-08T16:20:26.003Z,7.00
2023-02-08T16:23:21.351Z,7.73
2023-02-08T16:25:52.661Z,4.23
2023-02-08T16:28:28.013Z,7.73
2023-02-08T16:31:01.965Z,6.43
2023-02-08T16:33:37.143Z,14.57
2023-02-08T16:36:22.888Z,9.43
2023-02-08T16:39:16.079Z,16.37
2023-02-08T16:41:58.847Z,12.93
2023-02-08T16:44:36.585Z,20.43
2023-02-08T16:47:28.921Z,22.27
2023-02-08T16:50:00.206Z,18.07
2023-02-08T16:52:31.964Z,14.27
2023-02-08T16:55:03.836Z,16.93
2023-02-08T16:57:44.432Z,13.83
2023-02-08T17:00:23.390Z,14.07
2023-02-08T17:02:55.775Z,16.73
2023-02-08T17:05:30.673Z,18.13
2023-02-08T17:08:03.955Z,14.90
2023-02-08T17:10:35.912Z,14.07
2023-02-08T17:13:19.918Z,17.50
2023-02-08T17:15:52.908Z,12.87
2023-02-08T17:18:24.208Z,15.83
2023-02-08T17:20:59.517Z,17.97
2023-02-08T17:23:30.938Z,15.77
2023-02-08T17:26:02.938Z,21.27
2023-02-08T17:28:35.669Z,15.47
2023-02-08T17:31:07.184Z,16.53
2023-02-08T17:33:40.667Z,16.47
2023-02-08T17:36:14.677Z,18.47
2023-02-08T17:38:46.971Z,21.80
2023-02-08T17:41:19.952Z,20.07
2023-02-08T17:43:54.530Z,22.80
2023-02-08T17:46:27.808Z,22.47
2023-02-08T17:49:01.413Z,19.03
2023-02-08T17:51:34.194Z,21.83
2023-02-08T17:54:05.671Z,23.57
2023-02-08T17:56:37.021Z,23.07
2023-02-08T17:59:08.727Z,26.00
2023-02-08T18:01:40.492Z,26.03
2023-02-08T18:04:13.217Z,24.37
2023-02-08T18:06:44.472Z,20.33
2023-02-08T18:09:15.899Z,19.60
2023-02-08T18:11:47.154Z,25.17
2023-02-08T18:14:18.822Z,22.70
2023-02-08T18:16:50.190Z,24.17
2023-02-08T18:19:22.642Z,28.43
2023-02-08T18:21:53.996Z,34.63
2023-02-08T18:24:25.256Z,24.30
2023-02-08T18:26:58.922Z,24.47
2023-02-08T18:29:31.111Z,34.37
2023-02-08T18:32:02.612Z,27.57
2023-02-08T18:34:34.372Z,27.30
2023-02-08T18:37:05.619Z,24.80
2023-02-08T18:39:36.999Z,43.60
2023-02-08T18:42:08.459Z,24.87
2023-02-08T18:44:39.806Z,24.50
2023-02-08T18:47:11.128Z,34.87
2023-02-08T18:49:42.478Z,27.60
2023-02-08T18:52:15.755Z,29.00
2023-02-08T18:54:47.066Z,28.20
2023-02-08T18:57:18.574Z,28.50
2023-02-08T18:59:49.937Z,25.73
2023-02-08T19:02:23.183Z,29.20
2023-02-08T19:04:54.494Z,26.87
2023-02-08T19:07:25.848Z,26.83
2023-02-08T19:09:57.228Z,26.10
2023-02-08T19:12:28.563Z,29.33
2023-02-08T19:14:59.819Z,26.97
2023-02-08T19:17:31.113Z,30.67
2023-02-08T19:20:02.391Z,31.50
2023-02-08T19:22:33.895Z,31.03
2023-02-08T19:25:05.572Z,33.07
2023-02-08T19:27:37.019Z,28.03
2023-02-08T19:30:09.216Z,33.63
2023-02-08T19:32:40.465Z,34.80
2023-02-08T19:35:12.258Z,31.20
2023-02-08T19:37:45.554Z,35.63
2023-02-08T19:40:18.195Z,28.90
2023-02-08T19:42:49.518Z,30.20
2023-02-08T19:45:20.805Z,34.43
2023-02-08T19:47:52.730Z,31.40
2023-02-08T19:50:24.052Z,30.50
2023-02-08T19:52:55.355Z,35.30
2023-02-08T19:55:26.631Z,34.33
2023-02-08T19:57:57.925Z,38.20
2023-02-08T20:00:29.563Z,36.23
2023-02-08T20:03:07.766Z,33.10
2023-02-08T20:05:45.495Z,35.03
2023-02-08T20:08:18.609Z,36.40
2023-02-08T20:10:50.294Z,30.60
2023-02-08T20:13:22.829Z,30.67
2023-02-08T20:16:01.676Z,34.73
2023-02-08T20:18:33.060Z,32.53
2023-02-08T20:21:05.267Z,36.70
2023-02-08T20:23:36.989Z,40.00
2023-02-08T20:26:15.362Z,35.77
2023-02-08T20:28:51.112Z,35.50
2023-02-08T20:31:42.965Z,31.60
2023-02-08T20:34:16.438Z,42.93
2023-02-08T20:37:05.857Z,38.40
2023-02-08T20:39:38.071Z,36.27
2023-02-08T20:42:10.005Z,35.87
2023-02-08T20:44:41.363Z,40.03
2023-02-08T20:47:18.957Z,38.30
2023-02-08T20:49:51.130Z,36.77
2023-02-08T20:52:22.748Z,33.63
2023-02-08T20:54:54.099Z,38.37
2023-02-08T20:57:25.615Z,41.83
2023-02-08T20:59:56.903Z,37.40
2023-02-08T21:02:28.228Z,37.87
2023-02-08T21:05:00.624Z,37.17
2023-02-08T21:07:31.932Z,40.07
2023-02-08T21:10:03.910Z,45.03
2023-02-08T21:12:36.465Z,41.03
2023-02-08T21:15:09.212Z,43.40
2023-02-08T21:17:41.168Z,46.50
2023-02-08T21:20:12.781Z,52.57
2023-02-08T21:22:44.084Z,41.83
2023-02-08T21:25:15.477Z,43.83
2023-02-08T21:27:46.810Z,41.30
2023-02-08T21:30:18.196Z,42.53
2023-02-08T21:32:49.465Z,38.17
2023-02-08T21:35:20.737Z,36.27
2023-02-08T21:37:52.016Z,41.20
2023-02-08T21:40:23.295Z,39.90
2023-02-08T21:42:54.580Z,43.27
2023-02-08T21:45:25.881Z,40.67
2023-02-08T21:47:57.273Z,39.90
2023-02-08T21:50:47.395Z,46.13
2023-02-08T21:53:37.473Z,39.57
2023-02-08T21:56:09.788Z,47.63
2023-02-08T21:58:41.099Z,40.40
2023-02-08T22:01:12.420Z,44.20
2023-02-08T22:03:43.775Z,43.77
2023-02-08T22:06:15.075Z,37.07
2023-02-08T22:08:46.386Z,41.87
2023-02-08T22:11:17.676Z,42.53
2023-02-08T22:13:48.933Z,40.77
2023-02-08T22:16:20.235Z,41.10
2023-02-08T22:18:51.528Z,37.13
2023-02-08T22:21:22.806Z,45.70
2023-02-08T22:23:54.073Z,36.20
2023-02-08T22:26:25.692Z,40.47
2023-02-08T22:28:57.028Z,41.67
2023-02-08T22:31:28.416Z,38.90
2023-02-08T22:33:59.785Z,41.40
2023-02-08T22:36:31.192Z,38.97
2023-02-08T22:39:02.739Z,42.87
2023-02-08T22:41:34.243Z,42.67
2023-02-08T22:44:05.685Z,35.53
2023-02-08T22:46:36.987Z,44.00
2023-02-08T22:49:08.790Z,47.40
2023-02-08T22:51:40.198Z,34.43
2023-02-08T22:54:11.474Z,39.63
2023-02-08T22:56:42.841Z,45.83
2023-02-08T22:59:14.095Z,44.17
2023-02-08T23:01:45.592Z,43.07
2023-02-08T23:04:16.911Z,33.03
2023-02-08T23:06:48.343Z,37.43
2023-02-08T23:09:19.670Z,43.13
2023-02-08T23:11:51.112Z,47.03
2023-02-08T23:14:22.354Z,36.90
2023-02-08T23:16:53.720Z,40.03
2023-02-08T23:19:25.377Z,45.80
2023-02-08T23:22:01.090Z,36.30
2023-02-08T23:24:32.385Z,40.42
2023-02-08T23:27:03.805Z,44.87
2023-02-08T23:29:35.160Z,39.63
2023-02-08T23:32:06.524Z,47.77
2023-02-08T23:34:37.906Z,48.70
2023-02-08T23:37:09.338Z,46.63
2023-02-08T23:39:40.589Z,46.60
2023-02-08T23:42:25.276Z,41.87
2023-02-08T23:44:59.784Z,39.17
2023-02-08T23:47:31.615Z,36.87
2023-02-08T23:50:02.989Z,43.17
2023-02-08T23:52:36.113Z,44.73
2023-02-08T23:55:08.086Z,41.37
2023-02-08T23:57:39.420Z,47.00
